Time;durP1;ratioP1;P1;durP2;ratioP2;P2;SDS_P1;SDS_P2;PMS_P1;PMS_P2;Temp;Humidity;BMP_temperature;BMP_pressure;BME280_temperature;BME280_humidity;BME280_pressure;Samples;Min_cycle;Max_cycle;Signal;HPM_P1;HPM_P2
2021/10/28 00:12:18;;;;;;;12.15;7.05;;;11.40;70.70;;;;;;5032712;28;20079;-73
2021/10/28 00:14:47;;;;;;;10.20;6.88;;;11.40;70.30;;;;;;5031663;28;20532;-73
2021/10/28 00:17:16;;;;;;;9.13;6.93;;;11.40;70.60;;;;;;5032699;28;20022;-73
2021/10/28 00:19:42;;;;;;;9.30;6.90;;;11.40;70.40;;;;;;5032757;28;20088;-73
2021/10/28 00:22:09;;;;;;;10.00;7.30;;;11.40;70.60;;;;;;5032415;28;20431;-73
2021/10/28 00:24:35;;;;;;;9.27;6.35;;;11.40;70.50;;;;;;5032228;28;20101;-73
2021/10/28 00:27:01;;;;;;;8.38;6.40;;;11.40;70.70;;;;;;5032518;28;20152;-74
2021/10/28 00:29:27;;;;;;;9.40;6.93;;;11.30;70.60;;;;;;5032816;28;20018;-73
2021/10/28 00:31:56;;;;;;;13.13;7.70;;;11.30;70.30;;;;;;5032347;28;20459;-73
2021/10/28 00:34:23;;;;;;;9.73;7.55;;;11.30;70.40;;;;;;5032459;28;20048;-73
2021/10/28 00:36:49;;;;;;;9.02;7.00;;;11.30;70.30;;;;;;5032583;28;20032;-73
2021/10/28 00:39:16;;;;;;;10.40;7.30;;;11.20;70.20;;;;;;5032456;28;20033;-74
2021/10/28 00:41:42;;;;;;;11.30;7.10;;;11.20;70.40;;;;;;5032741;28;20072;-73
2021/10/28 00:44:10;;;;;;;11.55;7.60;;;11.10;70.30;;;;;;5032570;28;20087;-73
2021/10/28 00:46:39;;;;;;;12.32;6.97;;;11.10;70.50;;;;;;5032651;28;20120;-73
2021/10/28 00:49:08;;;;;;;11.65;7.35;;;11.10;70.90;;;;;;5032318;28;20025;-73
2021/10/28 00:51:34;;;;;;;10.35;7.40;;;11.00;70.80;;;;;;5032533;28;20066;-74
2021/10/28 00:54:01;;;;;;;9.90;7.22;;;10.90;70.90;;;;;;5032307;28;20429;-74
2021/10/28 00:56:30;;;;;;;10.90;7.90;;;10.90;71.20;;;;;;5032486;28;20026;-74
2021/10/28 00:58:56;;;;;;;11.43;7.95;;;10.80;71.40;;;;;;5032015;28;20029;-74
2021/10/28 01:01:22;;;;;;;12.90;7.88;;;10.80;71.60;;;;;;5030723;28;20401;-73
2021/10/28 01:03:47;;;;;;;10.52;7.32;;;10.80;71.40;;;;;;5032381;28;20029;-73
2021/10/28 01:06:15;;;;;;;10.32;7.15;;;10.90;71.40;;;;;;5034414;28;20065;-74
2021/10/28 01:08:45;;;;;;;13.85;7.18;;;10.80;71.30;;;;;;5035765;28;20096;-73
2021/10/28 01:11:12;;;;;;;13.48;7.60;;;10.90;71.60;;;;;;5036027;28;20021;-73
2021/10/28 01:13:39;;;;;;;9.70;7.38;;;10.80;71.50;;;;;;5035903;28;20059;-73
2021/10/28 01:16:06;;;;;;;11.35;7.40;;;10.80;71.30;;;;;;5035608;28;20067;-73
2021/10/28 01:18:33;;;;;;;11.57;7.47;;;10.80;70.90;;;;;;5035583;28;20032;-73
2021/10/28 01:21:00;;;;;;;14.00;7.55;;;10.80;71.40;;;;;;5035651;28;20110;-73
2021/10/28 01:23:26;;;;;;;9.27;7.28;;;10.80;71.20;;;;;;5035646;28;20033;-73
2021/10/28 01:25:57;;;;;;;9.75;7.25;;;10.70;71.10;;;;;;5035556;28;20029;-73
2021/10/28 01:28:25;;;;;;;10.80;6.88;;;10.80;71.20;;;;;;5035583;28;20029;-73
2021/10/28 01:30:57;;;;;;;12.75;7.20;;;10.80;71.40;;;;;;5035535;28;20108;-74
2021/10/28 01:33:23;;;;;;;9.23;7.22;;;10.80;71.10;;;;;;5035406;28;20025;-74
2021/10/28 01:35:49;;;;;;;11.52;7.72;;;10.80;71.00;;;;;;5035251;28;20030;-74
2021/10/28 01:38:17;;;;;;;12.43;7.97;;;10.70;70.90;;;;;;5033950;28;20072;-73
2021/10/28 01:40:51;;;;;;;11.35;7.75;;;10.70;70.80;;;;;;5034684;28;20025;-74
2021/10/28 01:43:18;;;;;;;10.93;7.93;;;10.60;70.90;;;;;;5033897;28;20405;-73
2021/10/28 01:45:44;;;;;;;12.57;8.10;;;10.70;70.90;;;;;;5032642;28;20504;-74
2021/10/28 01:48:10;;;;;;;11.32;8.20;;;10.60;70.80;;;;;;5034761;28;20052;-74
2021/10/28 01:50:36;;;;;;;12.10;7.90;;;10.60;70.80;;;;;;5035361;28;20111;-74
2021/10/28 01:53:01;;;;;;;12.90;8.13;;;10.50;70.60;;;;;;5034876;28;20075;-73
2021/10/28 01:55:27;;;;;;;9.65;7.40;;;10.40;71.20;;;;;;5034993;28;20087;-73
2021/10/28 01:57:53;;;;;;;16.23;8.55;;;10.40;71.30;;;;;;5034844;28;20034;-73
2021/10/28 02:00:21;;;;;;;10.40;7.45;;;10.30;70.90;;;;;;5034787;28;20180;-73
2021/10/28 02:02:49;;;;;;;9.73;7.95;;;10.30;71.20;;;;;;5035010;28;20509;-74
2021/10/28 02:05:21;;;;;;;10.80;7.67;;;10.40;79.00;;;;;;5034727;28;20037;-73
2021/10/28 02:07:47;;;;;;;12.20;7.70;;;10.40;75.10;;;;;;5034842;28;20105;-73
2021/10/28 02:10:14;;;;;;;11.27;7.50;;;10.30;74.50;;;;;;5034917;28;20104;-73
2021/10/28 02:12:41;;;;;;;10.70;7.50;;;10.30;73.10;;;;;;5035009;28;20450;-73
2021/10/28 02:15:09;;;;;;;11.27;8.10;;;10.20;72.70;;;;;;5034428;28;20026;-73
2021/10/28 02:17:36;;;;;;;9.00;7.07;;;10.20;72.90;;;;;;5033602;28;20131;-73
2021/10/28 02:20:07;;;;;;;10.43;7.63;;;10.20;74.10;;;;;;5034384;28;20021;-73
2021/10/28 02:22:34;;;;;;;10.07;7.30;;;10.20;73.60;;;;;;5034760;28;20099;-73
2021/10/28 02:24:59;;;;;;;12.43;7.47;;;10.20;73.70;;;;;;5034482;28;20025;-73
2021/10/28 02:27:25;;;;;;;12.70;7.37;;;10.30;73.80;;;;;;5032649;28;20033;-74
2021/10/28 02:29:51;;;;;;;11.50;7.90;;;10.30;73.40;;;;;;5033661;28;20032;-73
2021/10/28 02:32:17;;;;;;;10.90;7.45;;;10.30;72.90;;;;;;5034297;28;20033;-73
2021/10/28 02:34:43;;;;;;;16.10;7.07;;;10.20;73.30;;;;;;5032578;28;20033;-73
2021/10/28 02:37:09;;;;;;;9.87;7.47;;;10.20;73.50;;;;;;5032241;28;20156;-73
2021/10/28 02:39:35;;;;;;;9.73;7.07;;;10.20;73.40;;;;;;5032817;28;20061;-73
2021/10/28 02:42:02;;;;;;;11.38;7.05;;;10.30;73.40;;;;;;5031536;28;20481;-73
2021/10/28 02:44:28;;;;;;;9.88;6.78;;;10.30;73.00;;;;;;5033396;28;20018;-73
2021/10/28 02:46:54;;;;;;;10.95;7.65;;;10.30;72.80;;;;;;5032168;28;20125;-74
2021/10/28 02:49:20;;;;;;;9.80;6.63;;;10.30;72.60;;;;;;5033218;28;20037;-73
2021/10/28 02:51:47;;;;;;;10.63;7.05;;;10.30;72.90;;;;;;5032997;28;20052;-73
2021/10/28 02:54:17;;;;;;;10.00;7.72;;;10.30;72.90;;;;;;5032569;28;20104;-73
2021/10/28 02:56:43;;;;;;;11.10;7.25;;;10.30;72.70;;;;;;5032495;28;20486;-74
2021/10/28 02:59:09;;;;;;;9.35;7.10;;;10.30;72.40;;;;;;5031812;28;20030;-74
2021/10/28 03:01:43;;;;;;;9.53;7.40;;;10.20;72.70;;;;;;5032073;28;20037;-73
2021/10/28 03:04:10;;;;;;;10.27;7.43;;;10.20;72.50;;;;;;5032901;28;20076;-74
2021/10/28 03:06:39;;;;;;;9.13;6.93;;;10.10;72.90;;;;;;5031726;28;20040;-74
2021/10/28 03:09:05;;;;;;;11.67;7.30;;;10.10;72.80;;;;;;5031889;28;20080;-73
2021/10/28 03:11:31;;;;;;;10.35;7.25;;;10.10;73.00;;;;;;5033402;28;20030;-73
2021/10/28 03:13:57;;;;;;;9.30;7.10;;;10.00;73.30;;;;;;5032632;28;20013;-73
2021/10/28 03:27:06;;;;;;;10.17;7.73;;;10.10;74.20;;;;;;5033279;28;20067;-73
2021/10/28 03:29:32;;;;;;;10.33;7.10;;;10.10;84.30;;;;;;5032943;28;20025;-73
2021/10/28 03:31:58;;;;;;;9.47;7.13;;;10.00;77.50;;;;;;5033389;28;20033;-73
2021/10/28 03:34:24;;;;;;;11.77;7.10;;;10.00;77.00;;;;;;5033447;28;20061;-73
2021/10/28 03:37:07;;;;;;;11.60;7.60;;;10.00;76.80;;;;;;5033229;28;20128;-74
2021/10/28 03:39:51;;;;;;;10.00;7.10;;;10.00;76.30;;;;;;5033599;28;20025;-73
2021/10/28 04:21:09;;;;;;;11.63;7.23;;;9.70;81.10;;;;;;5033014;28;20026;-73
2021/10/28 04:29:04;;;;;;;9.53;7.20;;;9.50;87.60;;;;;;5032359;28;20504;-73
2021/10/28 04:31:36;;;;;;;9.53;7.60;;;9.40;84.90;;;;;;5032611;28;20117;-73
2021/10/28 04:34:06;;;;;;;14.87;8.47;;;9.40;82.80;;;;;;5032631;28;20022;-73
2021/10/28 04:36:32;;;;;;;10.77;7.43;;;9.40;82.90;;;;;;5032578;28;20021;-74
2021/10/28 04:38:58;;;;;;;16.27;7.87;;;9.40;81.60;;;;;;5031985;28;20080;-73
2021/10/28 04:41:26;;;;;;;13.13;8.30;;;9.30;80.60;;;;;;5034434;28;20046;-73
2021/10/28 04:43:52;;;;;;;12.43;7.93;;;9.40;81.20;;;;;;5034953;28;20040;-73
2021/10/28 04:46:18;;;;;;;15.17;9.17;;;9.40;81.20;;;;;;5036277;28;20120;-73
2021/10/28 04:48:44;;;;;;;12.27;8.20;;;9.40;81.10;;;;;;5034688;28;20018;-73
2021/10/28 04:51:10;;;;;;;14.10;7.87;;;9.40;81.00;;;;;;5036208;28;20021;-74
2021/10/28 04:53:36;;;;;;;16.97;9.47;;;9.40;81.20;;;;;;5036015;28;20432;-74
2021/10/28 04:56:02;;;;;;;14.10;8.67;;;9.40;81.00;;;;;;5036370;28;20025;-73
2021/10/28 04:58:28;;;;;;;17.03;8.90;;;9.50;81.00;;;;;;5036228;28;20025;-74
2021/10/28 05:00:53;;;;;;;14.50;8.63;;;9.50;80.80;;;;;;5035631;28;20064;-73
2021/10/28 05:03:19;;;;;;;24.77;8.47;;;9.50;80.90;;;;;;5036146;28;20112;-73
2021/10/28 05:05:45;;;;;;;17.27;7.83;;;9.40;81.00;;;;;;5036093;28;20069;-72
2021/10/28 05:08:11;;;;;;;13.93;8.47;;;9.40;81.50;;;;;;5034633;28;20118;-73
2021/10/28 05:10:40;;;;;;;15.20;8.87;;;9.40;81.30;;;;;;5036217;28;20629;-73
2021/10/28 05:13:11;;;;;;;11.63;8.20;;;9.40;81.50;;;;;;5035759;28;20017;-73
2021/10/28 05:15:40;;;;;;;10.87;7.73;;;9.40;81.80;;;;;;5035598;28;20030;-74
2021/10/28 05:18:06;;;;;;;13.43;8.30;;;9.40;81.40;;;;;;5035528;28;20496;-73
2021/10/28 05:20:32;;;;;;;11.27;7.87;;;9.40;81.40;;;;;;5035761;28;20048;-73
2021/10/28 05:22:58;;;;;;;12.13;8.07;;;9.40;81.40;;;;;;5035815;28;20501;-74
2021/10/28 05:25:24;;;;;;;14.50;8.33;;;9.30;81.90;;;;;;5035672;28;20056;-73
2021/10/28 05:27:49;;;;;;;13.20;8.23;;;9.40;81.70;;;;;;5035187;28;20334;-74
2021/10/28 05:30:15;;;;;;;14.83;7.83;;;9.30;80.80;;;;;;5035621;28;20474;-73
2021/10/28 05:32:40;;;;;;;11.73;7.47;;;9.30;81.20;;;;;;5035040;28;20028;-73
2021/10/28 05:35:06;;;;;;;13.10;8.30;;;9.20;81.40;;;;;;5034919;28;20033;-74
2021/10/28 05:37:32;;;;;;;13.80;8.53;;;9.20;80.90;;;;;;5031916;28;20022;-73
2021/10/28 05:40:00;;;;;;;12.33;7.97;;;9.20;80.40;;;;;;5033818;28;20021;-73
2021/10/28 05:42:26;;;;;;;13.27;8.30;;;9.20;80.60;;;;;;5034001;28;20029;-73
2021/10/28 05:44:52;;;;;;;13.17;8.00;;;9.20;80.40;;;;;;5035507;28;20492;-73
2021/10/28 05:47:18;;;;;;;13.87;8.03;;;9.10;81.90;;;;;;5034939;28;20438;-73
2021/10/28 05:49:43;;;;;;;10.97;8.03;;;9.10;81.60;;;;;;5034994;28;20049;-74
2021/10/28 05:52:09;;;;;;;14.07;8.73;;;9.10;80.10;;;;;;5034022;28;20060;-74
2021/10/28 05:54:35;;;;;;;16.63;8.63;;;9.10;80.90;;;;;;5033108;28;20022;-73
2021/10/28 05:57:00;;;;;;;15.53;9.37;;;9.10;80.80;;;;;;5033893;28;20021;-73
2021/10/28 05:59:27;;;;;;;11.43;8.50;;;;;;;;;;5034714;28;20014;-73
2021/10/28 06:01:52;;;;;;;12.27;8.20;;;8.40;91.00;;;;;;5034266;28;20049;-73
2021/10/28 06:04:18;;;;;;;13.87;8.47;;;9.00;89.00;;;;;;5033336;28;20033;-73
2021/10/28 06:06:43;;;;;;;18.93;9.20;;;9.00;90.00;;;;;;5034749;28;20116;-73
2021/10/28 06:09:09;;;;;;;13.53;8.50;;;9.00;89.80;;;;;;5034496;28;20068;-73
2021/10/28 06:11:35;;;;;;;19.67;9.30;;;9.00;90.30;;;;;;5032937;28;20549;-72
2021/10/28 06:14:01;;;;;;;17.97;10.17;;;;;;;;;;5034202;28;20036;-72
2021/10/28 06:16:27;;;;;;;18.03;10.17;;;;;;;;;;5034291;28;20025;-74
2021/10/28 06:18:53;;;;;;;17.03;10.30;;;9.00;94.30;;;;;;5033591;28;20025;-73
2021/10/28 06:21:23;;;;;;;17.53;9.37;;;9.10;91.70;;;;;;5033553;28;20359;-73
2021/10/28 06:23:49;;;;;;;20.93;10.90;;;9.20;92.60;;;;;;5038365;28;20465;-72
2021/10/28 06:26:17;;;;;;;19.67;10.13;;;9.20;91.80;;;;;;5050048;28;20048;-73
2021/10/28 06:28:43;;;;;;;20.30;10.23;;;;;;;;;;5034273;28;20017;-73
2021/10/28 06:31:09;;;;;;;16.93;10.13;;;9.20;90.00;;;;;;5024019;28;20524;-73
2021/10/28 06:33:37;;;;;;;28.07;10.40;;;9.30;90.50;;;;;;5020274;28;20034;-73
2021/10/28 06:36:04;;;;;;;20.83;11.03;;;9.30;91.00;;;;;;5022623;28;20366;-73
2021/10/28 06:38:32;;;;;;;19.10;10.87;;;9.30;92.90;;;;;;5022967;28;20068;-73
2021/10/28 06:41:00;;;;;;;25.80;11.13;;;9.30;91.00;;;;;;5021403;28;20022;-73
2021/10/28 06:43:25;;;;;;;25.13;10.60;;;9.30;90.90;;;;;;5022791;28;20499;-73
2021/10/28 06:45:51;;;;;;;25.47;11.47;;;9.40;91.60;;;;;;5023025;28;20037;-73
2021/10/28 06:48:16;;;;;;;22.63;11.00;;;9.40;91.70;;;;;;5022686;28;20018;-73
2021/10/28 06:50:52;;;;;;;27.73;13.03;;;9.50;90.80;;;;;;5022948;28;20074;-74
2021/10/28 07:03:48;;;;;;;24.47;13.87;;;;;;;;;;5011220;28;20382;-73
2021/10/28 07:06:19;;;;;;;18.40;12.17;;;9.90;90.80;;;;;;5013117;28;20033;-73
2021/10/28 07:08:48;;;;;;;18.63;12.57;;;9.80;75.80;;;;;;5012019;28;20101;-73
2021/10/28 07:11:23;;;;;;;24.97;12.90;;;9.90;76.30;;;;;;5012492;28;20026;-74
2021/10/28 07:13:51;;;;;;;23.67;12.20;;;10.00;75.90;;;;;;5013918;28;20014;-73
2021/10/28 07:19:41;;;;;;;21.67;11.97;;;10.20;76.30;;;;;;5013700;28;20022;-73
2021/10/28 08:05:29;;;;;;;30.15;19.63;;;11.60;77.30;;;;;;5021555;28;20442;-74
2021/10/28 08:16:32;;;;;;;20.67;11.35;;;11.90;74.90;;;;;;5017387;28;20088;-73
2021/10/28 08:19:07;;;;;;;19.20;13.27;;;12.00;73.90;;;;;;5017176;28;20394;-74
2021/10/28 08:29:35;;;;;;;13.23;9.30;;;;;;;;;;5017199;28;20548;-75
2021/10/28 08:32:03;;;;;;;14.25;8.95;;;12.70;90.40;;;;;;5016355;28;20033;-74
2021/10/28 08:34:33;;;;;;;13.57;8.43;;;;;;;;;;5016048;28;20026;-77
2021/10/28 08:37:09;;;;;;;14.45;8.95;;;;;;;;;;5015986;28;20030;-74
2021/10/28 08:39:36;;;;;;;9.02;7.35;;;;;;;;;;5015406;28;20030;-74
2021/10/28 08:42:06;;;;;;;10.80;7.10;;;;;;;;;;5016266;28;20109;-79
2021/10/28 08:44:36;;;;;;;9.85;6.50;;;13.20;87.10;;;;;;5016786;28;20098;-79
2021/10/28 08:47:02;;;;;;;10.52;6.50;;;13.30;71.50;;;;;;5015093;28;20038;-81
2021/10/28 08:49:33;;;;;;;87.88;14.23;;;13.40;82.00;;;;;;5016671;28;20079;-75
2021/10/28 08:54:55;;;;;;;22.23;8.80;;;13.50;73.80;;;;;;5016151;28;20042;-74
2021/10/28 08:57:55;;;;;;;18.98;10.50;;;13.60;70.90;;;;;;5016271;28;20049;-74
2021/10/28 09:26:28;;;;;;;7.50;5.35;;;;;;;;;;5015198;28;20520;-74
2021/10/28 09:29:00;;;;;;;8.95;5.00;;;14.90;62.40;;;;;;5015894;28;20459;-73
2021/10/28 09:31:32;;;;;;;20.10;6.07;;;14.90;62.00;;;;;;5014841;28;20022;-73
2021/10/28 09:34:14;;;;;;;8.68;4.85;;;15.00;62.30;;;;;;5015757;28;20036;-73
2021/10/28 09:51:06;;;;;;;7.53;5.00;;;15.60;62.60;;;;;;5015663;28;20445;-76
2021/10/28 09:53:56;;;;;;;6.75;4.47;;;15.50;58.10;;;;;;5015161;28;20030;-75
2021/10/28 09:59:56;;;;;;;4.80;3.95;;;15.70;57.60;;;;;;5015240;28;20084;-75
2021/10/28 10:02:38;;;;;;;18.33;6.40;;;15.80;56.60;;;;;;5014695;28;20056;-75
2021/10/28 10:05:06;;;;;;;23.13;4.97;;;15.80;57.40;;;;;;5015240;28;20034;-75
2021/10/28 10:07:32;;;;;;;20.10;5.40;;;15.90;59.00;;;;;;5015330;28;20037;-76
2021/10/28 10:10:01;;;;;;;103.15;14.85;;;16.00;58.90;;;;;;5014871;28;20026;-76
2021/10/28 10:12:27;;;;;;;150.32;21.23;;;16.10;58.30;;;;;;5015055;28;20025;-74
2021/10/28 10:14:54;;;;;;;13.95;4.30;;;16.10;59.40;;;;;;5014633;28;20033;-73
2021/10/28 10:17:20;;;;;;;11.23;4.50;;;16.20;56.20;;;;;;5014432;28;20026;-78
2021/10/28 10:19:50;;;;;;;7.65;4.10;;;16.30;55.30;;;;;;5014924;28;20029;-77
2021/10/28 10:30:20;;;;;;;6.32;3.63;;;16.40;54.10;;;;;;5014757;28;20030;-77
2021/10/28 11:05:30;;;;;;;7.78;4.00;;;17.40;52.40;;;;;;5014162;28;20034;-74
2021/10/28 11:22:43;;;;;;;22.60;9.93;;;17.80;51.90;;;;;;5013807;28;20026;-75
2021/10/28 12:45:17;;;;;;;6.70;3.85;;;19.20;47.30;;;;;;5012872;28;20437;-74
2021/10/28 12:48:09;;;;;;;8.27;3.80;;;19.20;47.30;;;;;;5012212;28;20030;-74
2021/10/28 13:56:43;;;;;;;5.30;3.80;;;18.80;46.50;;;;;;5015530;28;20297;-73
2021/10/28 14:23:41;;;;;;;6.35;3.95;;;18.40;48.10;;;;;;5014297;28;20026;-74
2021/10/28 14:32:13;;;;;;;6.88;4.20;;;18.30;49.20;;;;;;5011400;28;20045;-71
2021/10/28 16:22:04;;;;;;;8.82;6.70;;;16.60;53.30;;;;;;4993471;28;20037;-71
2021/10/28 16:24:34;;;;;;;7.43;6.53;;;16.50;52.50;;;;;;4993504;28;20054;-71
2021/10/28 16:27:01;;;;;;;9.80;6.47;;;16.50;52.70;;;;;;4993195;28;20627;-71
2021/10/28 16:29:27;;;;;;;9.48;6.00;;;16.50;53.10;;;;;;4993441;28;20014;-71
2021/10/28 16:31:54;;;;;;;7.60;5.85;;;16.40;52.80;;;;;;4993422;28;20030;-71
2021/10/28 16:34:19;;;;;;;11.35;6.13;;;16.50;52.00;;;;;;4993311;28;20022;-71
2021/10/28 16:36:47;;;;;;;10.98;6.80;;;16.40;50.90;;;;;;4995032;28;20035;-71
2021/10/28 16:39:14;;;;;;;8.20;5.85;;;16.30;50.10;;;;;;4997256;28;20026;-71
2021/10/28 16:41:48;;;;;;;14.57;6.40;;;16.30;50.80;;;;;;4997342;28;20026;-71
2021/10/28 16:44:15;;;;;;;12.30;10.45;;;16.20;51.40;;;;;;4996952;28;20018;-72
2021/10/28 16:46:41;;;;;;;13.40;8.65;;;16.10;51.60;;;;;;4997149;28;20491;-71
2021/10/28 16:49:09;;;;;;;14.07;9.68;;;16.00;51.90;;;;;;4997260;28;20019;-71
2021/10/28 16:51:35;;;;;;;14.07;9.90;;;16.00;52.60;;;;;;4997192;28;20019;-71
2021/10/28 16:54:01;;;;;;;14.73;7.60;;;15.90;52.20;;;;;;4997131;28;20387;-71
2021/10/28 16:56:26;;;;;;;11.90;7.50;;;15.80;52.10;;;;;;4997469;28;20022;-72
2021/10/28 16:58:52;;;;;;;12.15;7.57;;;15.80;51.60;;;;;;4996914;28;20027;-72
2021/10/28 17:01:18;;;;;;;11.85;7.05;;;15.80;51.20;;;;;;5012021;28;20430;-72
2021/10/28 17:03:44;;;;;;;13.27;8.05;;;15.80;51.50;;;;;;4996600;28;20042;-71
2021/10/28 17:06:13;;;;;;;11.13;8.07;;;15.80;51.10;;;;;;4996828;28;20491;-71
2021/10/28 17:08:40;;;;;;;17.50;7.65;;;15.80;51.20;;;;;;4996812;28;20590;-72
2021/10/28 17:11:06;;;;;;;11.70;8.00;;;15.70;51.70;;;;;;4996745;28;20057;-72
2021/10/28 17:13:33;;;;;;;12.85;7.30;;;;;;;;;;4996647;28;20018;-71
2021/10/28 17:15:58;;;;;;;8.93;6.88;;;15.70;51.60;;;;;;4996545;28;20021;-72
2021/10/28 17:18:24;;;;;;;13.82;8.00;;;15.60;52.40;;;;;;4996471;28;20022;-72
2021/10/28 17:20:51;;;;;;;14.30;7.93;;;15.60;52.70;;;;;;4996403;28;20026;-72
2021/10/28 17:23:18;;;;;;;14.73;8.38;;;15.60;52.30;;;;;;4996563;28;20028;-72
2021/10/28 17:25:56;;;;;;;14.30;7.32;;;15.50;52.30;;;;;;4996218;28;20035;-71
2021/10/28 17:28:21;;;;;;;13.57;7.82;;;15.50;52.70;;;;;;4996187;28;20167;-72
2021/10/28 17:30:47;;;;;;;13.43;8.73;;;15.40;52.30;;;;;;4996309;28;20158;-71
2021/10/28 17:33:13;;;;;;;14.93;8.75;;;15.40;52.90;;;;;;4996539;28;20114;-71
2021/10/28 17:35:39;;;;;;;11.57;8.00;;;15.40;52.40;;;;;;4996217;28;20113;-71
2021/10/28 17:38:04;;;;;;;11.93;8.20;;;15.30;52.80;;;;;;4996209;28;20030;-71
2021/10/28 17:40:30;;;;;;;11.85;8.25;;;15.20;53.00;;;;;;4994964;28;20034;-71
2021/10/28 17:42:57;;;;;;;10.50;8.98;;;15.20;53.70;;;;;;4996134;28;20053;-71
2021/10/28 17:45:29;;;;;;;17.65;11.52;;;15.10;54.40;;;;;;4995832;28;20056;-72
2021/10/28 17:47:56;;;;;;;20.95;13.60;;;15.10;55.00;;;;;;4995518;28;20038;-72
2021/10/28 17:50:24;;;;;;;21.55;14.45;;;15.00;56.80;;;;;;4995819;28;20036;-71
2021/10/28 17:52:50;;;;;;;19.73;13.57;;;15.00;57.30;;;;;;4995770;28;20026;-71
2021/10/28 17:55:16;;;;;;;25.08;14.00;;;14.90;57.60;;;;;;4995997;28;20041;-71
2021/10/28 17:57:49;;;;;;;21.70;13.80;;;14.90;57.90;;;;;;4995900;28;20018;-71
2021/10/28 18:00:15;;;;;;;21.92;13.85;;;14.80;58.10;;;;;;4995712;28;20030;-71
2021/10/28 18:02:42;;;;;;;31.05;15.52;;;14.70;58.00;;;;;;4995380;28;20418;-71
2021/10/28 18:05:08;;;;;;;20.63;15.00;;;14.70;58.30;;;;;;4995525;28;20536;-71
2021/10/28 18:07:34;;;;;;;23.63;14.82;;;14.70;58.70;;;;;;4995598;28;20034;-71
2021/10/28 18:09:59;;;;;;;25.63;15.45;;;14.60;59.10;;;;;;4995712;28;20068;-71
2021/10/28 18:12:29;;;;;;;22.30;15.20;;;14.60;59.50;;;;;;4995518;28;20490;-71
2021/10/28 18:14:55;;;;;;;20.83;14.27;;;14.50;59.50;;;;;;4995484;28;20015;-72
2021/10/28 18:17:21;;;;;;;23.10;15.98;;;14.50;59.60;;;;;;4995517;28;20026;-71
2021/10/28 18:19:47;;;;;;;23.98;14.82;;;14.50;59.60;;;;;;4994272;28;20033;-72
2021/10/28 18:22:15;;;;;;;18.20;13.48;;;14.40;59.50;;;;;;4995528;28;20029;-71
2021/10/28 18:24:41;;;;;;;25.58;13.63;;;14.40;59.50;;;;;;4995265;28;20105;-72
2021/10/28 18:27:08;;;;;;;21.13;14.50;;;14.40;59.10;;;;;;4995083;28;20169;-72
2021/10/28 18:29:35;;;;;;;19.73;12.85;;;14.30;59.50;;;;;;4995169;28;20029;-72
2021/10/28 18:32:00;;;;;;;15.60;12.35;;;14.30;59.20;;;;;;4995313;28;20105;-71
2021/10/28 18:34:26;;;;;;;18.35;13.07;;;14.20;59.10;;;;;;4995019;28;20579;-71
2021/10/28 18:36:52;;;;;;;20.13;12.93;;;14.20;58.90;;;;;;4994877;28;20035;-71
2021/10/28 18:39:19;;;;;;;21.52;13.93;;;14.20;58.90;;;;;;4994977;28;20111;-71
2021/10/28 18:41:50;;;;;;;18.85;12.35;;;14.20;58.80;;;;;;4995059;28;20029;-72
2021/10/28 18:44:16;;;;;;;18.27;13.00;;;14.10;58.50;;;;;;4993712;28;20054;-71
2021/10/28 18:46:42;;;;;;;18.40;13.48;;;14.20;58.50;;;;;;4994704;28;20077;-71
2021/10/28 18:49:08;;;;;;;22.08;14.25;;;14.10;58.70;;;;;;4994889;28;20034;-72
2021/10/28 18:51:38;;;;;;;20.15;14.77;;;14.10;59.00;;;;;;4994766;28;20537;-71
2021/10/28 18:54:04;;;;;;;23.33;14.93;;;;;;;;;;4992366;28;20396;-71
2021/10/28 18:56:30;;;;;;;20.95;14.30;;;13.90;58.80;;;;;;4989737;28;20018;-71
2021/10/28 18:58:56;;;;;;;23.20;16.75;;;13.90;59.70;;;;;;4991704;28;20475;-72
2021/10/28 19:01:22;;;;;;;30.90;23.10;;;13.90;60.10;;;;;;4991040;28;20565;-71
2021/10/28 19:03:51;;;;;;;26.70;14.27;;;13.90;59.80;;;;;;4991140;28;20042;-71
2021/10/28 19:06:16;;;;;;;19.63;14.00;;;13.80;60.10;;;;;;4992434;28;20129;-69
2021/10/28 19:08:43;;;;;;;20.02;14.38;;;13.80;60.60;;;;;;4993738;28;20097;-70
2021/10/28 19:11:10;;;;;;;22.58;15.63;;;13.90;64.20;;;;;;4993991;28;20030;-71
2021/10/28 19:13:37;;;;;;;24.65;15.27;;;13.80;60.20;;;;;;4994041;28;20030;-72
2021/10/28 19:16:04;;;;;;;20.85;14.88;;;13.80;60.60;;;;;;4993555;28;20034;-71
2021/10/28 19:18:30;;;;;;;21.90;15.00;;;13.80;60.50;;;;;;4993713;28;20026;-71
2021/10/28 19:20:56;;;;;;;20.13;15.70;;;13.70;60.40;;;;;;4994188;28;20416;-71
2021/10/28 19:23:22;;;;;;;19.25;14.30;;;13.70;60.20;;;;;;4993563;28;20390;-71
2021/10/28 19:25:48;;;;;;;18.23;13.82;;;13.70;60.00;;;;;;4993896;28;20497;-71
2021/10/28 19:28:15;;;;;;;17.75;13.45;;;13.70;59.90;;;;;;4993593;28;20026;-71
2021/10/28 19:30:53;;;;;;;21.02;14.93;;;13.70;59.90;;;;;;4993681;28;20479;-71
2021/10/28 19:33:30;;;;;;;20.35;16.60;;;13.70;59.90;;;;;;4993928;28;20018;-71
2021/10/28 19:35:58;;;;;;;19.38;14.98;;;13.70;59.80;;;;;;4993547;28;20068;-71
2021/10/28 19:46:25;;;;;;;20.02;13.60;;;13.70;59.50;;;;;;4993573;28;20045;-71
2021/10/28 19:48:50;;;;;;;17.48;13.48;;;13.70;59.70;;;;;;4993528;28;20553;-71
2021/10/28 19:51:17;;;;;;;19.02;14.35;;;13.70;59.70;;;;;;4993743;28;20034;-71
2021/10/28 19:53:46;;;;;;;18.77;13.95;;;13.60;59.60;;;;;;4993713;28;20087;-71
2021/10/28 19:56:17;;;;;;;19.45;14.68;;;13.70;60.00;;;;;;4993572;28;20034;-71
2021/10/28 19:58:49;;;;;;;28.25;16.55;;;13.70;60.20;;;;;;4993610;28;20117;-72
2021/10/28 20:14:52;;;;;;;21.35;16.25;;;13.50;60.80;;;;;;4995080;28;20537;-71
2021/10/28 20:22:36;;;;;;;21.63;16.15;;;13.50;61.10;;;;;;4997104;28;20034;-72
2021/10/28 20:25:07;;;;;;;24.45;15.95;;;13.50;61.20;;;;;;4997024;28;20022;-70
2021/10/28 20:27:33;;;;;;;19.02;14.90;;;13.50;61.10;;;;;;4997166;28;20114;-72
2021/10/28 20:29:59;;;;;;;24.60;15.73;;;13.40;61.10;;;;;;4997153;28;20101;-72
2021/10/28 20:32:25;;;;;;;23.55;16.35;;;13.40;61.20;;;;;;4997275;28;20026;-71
2021/10/28 20:37:17;;;;;;;20.48;15.90;;;13.30;61.30;;;;;;4996619;28;20050;-71
2021/10/28 20:39:46;;;;;;;22.27;15.60;;;13.30;61.40;;;;;;4997098;28;20085;-72
2021/10/28 20:42:16;;;;;;;21.98;16.30;;;13.30;61.30;;;;;;4997162;28;20110;-71
2021/10/28 20:44:44;;;;;;;20.42;15.38;;;13.20;61.30;;;;;;4996866;28;20056;-71
2021/10/28 20:47:10;;;;;;;22.15;15.85;;;13.30;61.90;;;;;;4996593;28;20441;-72
2021/10/28 20:49:35;;;;;;;21.17;16.83;;;13.30;61.80;;;;;;4996875;28;20022;-71
2021/10/28 20:52:01;;;;;;;22.33;16.85;;;13.20;61.70;;;;;;4996710;28;20018;-72
2021/10/28 20:54:27;;;;;;;20.95;16.10;;;13.20;61.50;;;;;;4996725;28;20432;-71
2021/10/28 20:56:55;;;;;;;25.15;15.98;;;13.20;61.80;;;;;;4996790;28;20065;-71
2021/10/28 20:59:21;;;;;;;18.48;16.23;;;13.10;61.50;;;;;;4996834;28;20018;-71
2021/10/28 21:01:47;;;;;;;22.98;16.88;;;13.10;61.60;;;;;;4996833;28;20088;-71
2021/10/28 21:04:15;;;;;;;21.05;15.95;;;13.10;61.40;;;;;;4994823;28;20165;-71
2021/10/28 21:06:41;;;;;;;17.85;14.82;;;13.10;61.30;;;;;;4993989;28;20505;-71
2021/10/28 21:09:07;;;;;;;18.20;15.40;;;13.10;61.30;;;;;;4993896;28;20037;-71
2021/10/28 21:11:36;;;;;;;16.77;14.75;;;13.10;61.50;;;;;;4995943;28;20035;-71
2021/10/28 21:14:02;;;;;;;19.13;16.30;;;13.10;61.70;;;;;;4996589;28;20434;-71
2021/10/28 21:16:28;;;;;;;23.45;16.63;;;13.10;61.60;;;;;;4996661;28;20034;-71
2021/10/28 21:18:54;;;;;;;21.92;17.08;;;13.00;61.50;;;;;;4996106;28;20485;-71
2021/10/28 21:21:20;;;;;;;20.65;16.17;;;13.00;61.80;;;;;;4996008;28;20033;-71
2021/10/28 21:23:45;;;;;;;23.58;16.95;;;13.00;62.20;;;;;;4995777;28;20019;-71
2021/10/28 21:26:12;;;;;;;20.80;17.23;;;13.00;62.10;;;;;;4996252;28;20031;-71
2021/10/28 21:28:38;;;;;;;21.85;17.48;;;12.90;62.20;;;;;;4994955;28;20125;-71
2021/10/28 21:31:06;;;;;;;20.92;16.42;;;12.90;62.30;;;;;;4996462;28;20073;-71
2021/10/28 21:33:32;;;;;;;20.98;16.42;;;12.90;62.10;;;;;;4996385;28;20100;-71
2021/10/28 21:35:58;;;;;;;21.42;16.65;;;12.80;62.10;;;;;;4995630;28;20033;-70
2021/10/28 21:38:23;;;;;;;21.60;16.98;;;12.90;62.30;;;;;;4995967;28;20026;-71
2021/10/28 21:40:49;;;;;;;23.58;19.02;;;12.80;62.70;;;;;;4995882;28;20039;-72
2021/10/28 21:43:17;;;;;;;23.15;17.27;;;12.90;62.60;;;;;;4995657;28;20133;-72
2021/10/28 21:45:46;;;;;;;22.65;17.85;;;12.80;62.20;;;;;;4996061;28;20471;-71
2021/10/28 21:48:12;;;;;;;22.73;17.88;;;12.80;62.30;;;;;;4995629;28;20168;-71
2021/10/28 21:50:39;;;;;;;23.50;18.23;;;12.80;62.50;;;;;;4996103;28;20027;-72
2021/10/28 21:53:11;;;;;;;22.98;18.25;;;12.80;62.50;;;;;;4995527;28;20031;-71
2021/10/28 22:25:05;;;;;;;23.48;18.15;;;12.60;63.10;;;;;;4995016;28;20092;-71
2021/10/28 22:27:32;;;;;;;29.30;18.05;;;12.60;63.30;;;;;;4995163;28;20046;-71